Aérodrome :
LOGIN :

S'inscrire | Disclaimer

   EN    FR    IT 

 










Légende :    VFR   VFR Marginal   IFR   IFR Intensif   IFR Très Intensif
Visi : 
Plafond : 
>= 8 km
>= 3000ft
5 à 8 km
1000 à 3000 ft
1500m à 5 km
500 à 1000 ft
800 à 1500m
200 à 500 ft
< 800m
< 200 ft
Symboles :   Orages  Brouillard  Fortes neiges  Fortes précipitations  Vent > 20 kt
SIGMETs :   Divers  Orages  Givrage  Turbulence  Onde Orograph.  Cendres Volcan.







- Altitude de l'aérodrome : 330 ft
- Code IATA : LVA
- Voir les cartes d'approche


LFOV - Laval-Entrammes

DERNIER METAR :
  • 190900Z AUTO 20009KT 9999 FEW031/// SCT047/// BKN054/// ///TCU 07/06 Q1011

METARs EXPIRÉS :
  • 190830Z AUTO 20010KT 9999 FEW049 07/06 Q1011
  • 190800Z AUTO 20009KT 9999 FEW019/// BKN230/// ///TCU 07/06 Q1010
  • 190730Z AUTO 20008KT 9999 FEW021/// BKN042/// BKN076/// ///TCU 07/06 Q1010
  • 190700Z AUTO 20008KT 9999 SCT047/// BKN056/// OVC078/// ///TCU 07/06 Q1011
  • 190630Z AUTO 20010KT 9999 SCT026 BKN180 BKN220 07/06 Q1010

TAF N/A
Pas de NOTAMs connus pour ce terrain.
1 SIGMET publié pour la FIR Brest (LFRR) :
 
Orages noyés dans la masse
LFRR SIGMET 3 VALID 190800/191000 LFPW
LFRR BREST FIR/UIR EMBD TS FCST WI N4345 W00315 - N4415 W00515 - N4700 W00315 - N4645 W00230 - N4345 W00315 TOP FL300 MOV E 30KT NC=



MET'MAP, la Météo Aéronautique d'un coup d'oeil ! - Copyright ORBIFLY Décembre 2007 - Disclaimer

ORBIFLY MET'MAP TEAM :

Programmation & Développement : Alexandra Zaïnal
Conception & Développement : Baudouin d'Aumeries
Co-Programmation & Développement : Marc-Olivier Méhu
Soutien technique & logistique : Manuel Goepfert

Contact : metmap@orbifly.com




SOURCES & CREDITS :

   NOAA